Time;durP1;ratioP1;P1;durP2;ratioP2;P2;SDS_P1;SDS_P2;PMS_P1;PMS_P2;Temp;Humidity;BMP_temperature;BMP_pressure;BME280_temperature;BME280_humidity;BME280_pressure;Samples;Min_cycle;Max_cycle;Signal;HPM_P1;HPM_P2
2021/04/23 00:00:57;;;;;;;4.80;2.42;;;;;;;4.85;47.24;97199.56;5073808;28;20041;-77
2021/04/23 00:03:31;;;;;;;2.80;2.20;;;;;;;4.81;46.97;97193.09;5072522;28;20039;-77
2021/04/23 00:06:12;;;;;;;3.90;2.40;;;;;;;4.74;47.10;97195.50;5073869;28;20040;-77
2021/04/23 00:08:41;;;;;;;4.50;2.30;;;;;;;4.67;46.88;97194.53;5073479;28;20037;-77
2021/04/23 00:11:08;;;;;;;5.10;1.83;;;;;;;4.61;47.15;97193.38;5073875;28;20033;-77
2021/04/23 00:13:36;;;;;;;5.13;2.13;;;;;;;4.55;47.34;97194.03;5073770;28;20047;-77
2021/04/23 00:16:03;;;;;;;3.42;2.05;;;;;;;4.48;47.25;97193.88;5073328;28;20469;-77
2021/04/23 00:18:29;;;;;;;6.75;2.25;;;;;;;4.43;47.34;97184.91;5072460;28;20489;-77
2021/04/23 00:20:56;;;;;;;3.33;2.28;;;;;;;4.37;47.63;97186.41;5073516;28;20362;-77
2021/04/23 00:23:24;;;;;;;5.82;2.58;;;;;;;4.35;47.84;97196.13;5073315;28;20473;-76
2021/04/23 00:26:06;;;;;;;2.65;1.88;;;;;;;4.33;47.79;97192.06;5073810;28;20040;-76
2021/04/23 00:28:34;;;;;;;4.70;2.22;;;;;;;4.32;48.19;97200.81;5073250;28;20477;-76
2021/04/23 00:31:07;;;;;;;4.10;2.45;;;;;;;4.26;48.06;97197.91;5073497;28;20061;-77
2021/04/23 00:33:34;;;;;;;3.25;2.45;;;;;;;4.22;48.17;97206.16;5073219;28;20056;-77
2021/04/23 00:36:03;;;;;;;5.03;2.20;;;;;;;4.19;48.53;97199.50;5073112;28;20060;-77
2021/04/23 00:38:30;;;;;;;3.42;2.00;;;;;;;4.18;48.41;97204.84;5073205;28;20048;-77
2021/04/23 00:41:04;;;;;;;7.88;2.20;;;;;;;4.16;49.19;97210.22;5073380;28;20047;-77
2021/04/23 00:43:34;;;;;;;3.88;2.15;;;;;;;4.13;48.60;97207.91;5073461;28;20032;-77
2021/04/23 00:46:07;;;;;;;5.05;2.10;;;;;;;4.11;48.95;97199.47;5072000;28;20036;-77
2021/04/23 00:48:46;;;;;;;3.10;2.22;;;;;;;4.08;49.83;97202.41;5072691;28;20057;-77
2021/04/23 00:51:20;;;;;;;4.38;2.20;;;;;;;4.05;50.18;97193.16;5062079;28;20051;-77
2021/04/23 00:53:50;;;;;;;4.22;2.20;;;;;;;4.01;49.14;97189.25;5073244;28;20045;-77
2021/04/23 00:56:19;;;;;;;3.72;2.38;;;;;;;3.98;49.25;97194.72;5073245;28;20047;-77
2021/04/23 00:58:46;;;;;;;2.70;2.17;;;;;;;3.96;49.25;97195.88;5072943;28;20033;-77
2021/04/23 01:01:20;;;;;;;3.70;2.42;;;;;;;3.93;50.16;97189.22;5072986;28;20032;-77
2021/04/23 01:03:46;;;;;;;2.70;1.90;;;;;;;3.92;49.66;97187.56;5073046;28;20040;-77
2021/04/23 01:06:19;;;;;;;3.53;2.05;;;;;;;3.92;50.10;97189.38;5072791;28;20029;-77
2021/04/23 01:08:46;;;;;;;3.92;2.20;;;;;;;3.88;49.72;97182.88;5072742;28;20041;-77
2021/04/23 01:11:14;;;;;;;5.30;2.35;;;;;;;3.83;49.92;97176.38;5071751;28;20036;-77
2021/04/23 01:13:41;;;;;;;6.97;2.10;;;;;;;3.78;49.83;97177.78;5073069;28;20041;-77
2021/04/23 01:16:11;;;;;;;3.17;2.20;;;;;;;3.74;49.99;97179.06;5072855;28;20032;-77
2021/04/23 01:18:38;;;;;;;4.18;2.03;;;;;;;3.73;50.01;97180.06;5072993;28;20040;-77
2021/04/23 01:21:04;;;;;;;5.22;2.38;;;;;;;3.72;50.38;97183.63;5071888;28;20028;-77
2021/04/23 01:23:31;;;;;;;4.70;2.65;;;;;;;3.70;50.22;97182.97;5072600;28;20040;-77
2021/04/23 01:25:57;;;;;;;3.90;2.40;;;;;;;3.70;50.53;97177.78;5073122;28;20369;-77
2021/04/23 01:28:24;;;;;;;7.13;2.30;;;;;;;3.70;50.20;97175.19;5072741;28;20036;-77
2021/04/23 01:30:50;;;;;;;3.40;2.25;;;;;;;3.66;50.49;97183.28;5072344;28;20048;-77
2021/04/23 01:33:17;;;;;;;3.95;2.08;;;;;;;3.63;50.39;97177.56;5072483;28;20044;-77
2021/04/23 01:35:44;;;;;;;4.97;2.25;;;;;;;3.60;50.51;97180.50;5072820;28;20037;-77
2021/04/23 01:38:10;;;;;;;2.75;2.00;;;;;;;3.58;50.87;97191.00;5071354;28;20028;-77
2021/04/23 01:40:36;;;;;;;4.38;2.35;;;;;;;3.53;50.65;97188.09;5072758;28;20043;-77
2021/04/23 01:43:03;;;;;;;4.15;2.15;;;;;;;3.46;50.43;97192.25;5072855;28;20424;-77
2021/04/23 01:45:30;;;;;;;5.13;1.95;;;;;;;3.39;50.61;97191.25;5072086;28;20044;-77
2021/04/23 01:47:58;;;;;;;6.43;2.17;;;;;;;3.34;50.62;97196.06;5070724;28;20051;-77
2021/04/23 01:50:24;;;;;;;3.92;2.13;;;;;;;3.36;50.89;97201.91;5071421;28;20039;-77
2021/04/23 01:52:51;;;;;;;6.00;2.08;;;;;;;3.38;50.91;97198.22;5076450;28;20047;-77
2021/04/23 01:55:20;;;;;;;6.30;2.33;;;;;;;3.40;50.89;97192.84;5075711;28;20067;-77
2021/04/23 01:57:47;;;;;;;7.25;2.40;;;;;;;3.42;50.61;97193.53;5075855;28;20039;-77
2021/04/23 02:00:20;;;;;;;4.70;1.85;;;;;;;3.42;50.76;97199.53;5075192;28;20048;-77
2021/04/23 02:02:49;;;;;;;7.18;2.47;;;;;;;3.49;50.67;97202.31;5075784;28;20044;-77
2021/04/23 02:05:16;;;;;;;2.80;2.08;;;;;;;3.53;50.72;97200.22;5075779;28;20032;-77
2021/04/23 02:07:42;;;;;;;3.33;1.75;;;;;;;3.56;50.62;97202.53;5075853;28;20032;-77
2021/04/23 02:10:12;;;;;;;4.70;1.92;;;;;;;3.58;50.69;97208.38;5075812;28;20401;-77
2021/04/23 02:12:39;;;;;;;4.28;2.25;;;;;;;3.60;50.70;97217.59;5074843;28;20055;-77
2021/04/23 02:15:11;;;;;;;3.15;1.77;;;;;;;3.60;50.73;97224.59;5074437;28;20033;-77
2021/04/23 02:17:38;;;;;;;5.40;2.08;;;;;;;3.56;50.73;97221.47;5075703;28;20048;-77
2021/04/23 02:20:12;;;;;;;6.38;2.05;;;;;;;3.50;51.10;97216.91;5075659;28;20436;-77
2021/04/23 02:22:40;;;;;;;2.95;2.35;;;;;;;3.45;50.61;97229.53;5075683;28;20362;-77
2021/04/23 02:25:08;;;;;;;3.70;2.10;;;;;;;3.38;50.87;97229.34;5075445;28;20060;-77
2021/04/23 02:27:34;;;;;;;4.22;2.33;;;;;;;3.33;51.05;97234.16;5075289;28;20039;-77
2021/04/23 02:30:00;;;;;;;4.50;2.15;;;;;;;3.33;50.86;97239.34;5074323;28;20040;-77
2021/04/23 02:32:27;;;;;;;2.55;2.08;;;;;;;3.31;51.12;97241.25;5075250;28;20036;-77
2021/04/23 02:34:53;;;;;;;2.58;2.08;;;;;;;3.25;51.13;97244.47;5074224;28;20036;-77
2021/04/23 02:37:19;;;;;;;4.90;2.35;;;;;;;3.20;51.38;97238.94;5075016;28;20055;-77
2021/04/23 02:39:46;;;;;;;3.53;1.85;;;;;;;3.13;51.21;97236.13;5075313;28;20045;-77
2021/04/23 02:42:12;;;;;;;3.53;2.00;;;;;;;3.07;51.33;97235.91;5074976;28;20048;-77
2021/04/23 02:44:38;;;;;;;3.05;2.10;;;;;;;3.01;51.53;97237.34;5074739;28;20504;-76
2021/04/23 02:47:05;;;;;;;7.13;2.25;;;;;;;2.98;51.57;97237.63;5074887;28;20044;-77
2021/04/23 02:49:31;;;;;;;4.25;2.15;;;;;;;2.93;51.71;97240.66;5074763;28;20460;-77
2021/04/23 02:51:57;;;;;;;2.30;1.70;;;;;;;2.88;51.91;97239.47;5073662;28;20051;-77
2021/04/23 02:54:26;;;;;;;3.60;2.00;;;;;;;2.86;51.79;97239.66;5074814;28;20028;-77
2021/04/23 02:56:53;;;;;;;6.18;2.47;;;;;;;2.81;51.97;97247.88;5074695;28;20045;-77
2021/04/23 02:59:19;;;;;;;5.82;2.30;;;;;;;2.79;52.16;97254.16;5074480;28;20052;-77
2021/04/23 03:01:49;;;;;;;4.07;2.30;;;;;;;2.72;52.46;97246.16;5074125;28;20053;-77
2021/04/23 03:04:15;;;;;;;3.42;2.13;;;;;;;2.69;52.21;97245.63;5074728;28;20063;-77
2021/04/23 03:06:42;;;;;;;3.25;2.08;;;;;;;2.65;52.27;97250.31;5074747;28;20040;-77
2021/04/23 03:09:09;;;;;;;3.95;1.90;;;;;;;2.61;52.42;97244.63;5074804;28;20037;-77
2021/04/23 03:11:39;;;;;;;5.47;2.50;;;;;;;2.57;52.81;97243.28;5074662;28;20052;-77
2021/04/23 03:14:06;;;;;;;3.03;2.10;;;;;;;2.54;52.42;97246.19;5074304;28;20036;-77
2021/04/23 03:16:33;;;;;;;3.95;2.30;;;;;;;2.51;52.64;97245.66;5073912;28;20392;-77
2021/04/23 03:19:00;;;;;;;4.35;2.17;;;;;;;2.47;52.55;97245.13;5074465;28;20037;-77
2021/04/23 03:21:28;;;;;;;3.10;2.00;;;;;;;2.44;52.79;97241.06;5074268;28;20477;-77
2021/04/23 03:23:56;;;;;;;3.92;2.22;;;;;;;2.43;52.87;97238.59;5073732;28;20044;-77
2021/04/23 03:26:24;;;;;;;3.80;2.25;;;;;;;2.42;53.05;97247.34;5072915;28;20044;-76
2021/04/23 03:28:50;;;;;;;6.05;2.10;;;;;;;2.38;52.88;97238.25;5074803;28;20040;-77
2021/04/23 03:31:17;;;;;;;4.63;2.58;;;;;;;2.34;53.14;97236.91;5074554;28;20045;-77
2021/04/23 03:33:43;;;;;;;4.68;2.22;;;;;;;2.32;53.11;97249.19;5074490;28;20496;-77
2021/04/23 03:36:12;;;;;;;3.50;1.98;;;;;;;2.29;53.07;97247.72;5071964;28;20036;-77
2021/04/23 03:38:43;;;;;;;4.30;2.42;;;;;;;2.27;53.62;97249.63;5073789;28;20048;-77
2021/04/23 03:41:24;;;;;;;2.65;2.00;;;;;;;2.24;54.53;97245.53;5073528;28;20115;-77
2021/04/23 03:43:51;;;;;;;6.28;2.70;;;;;;;2.21;53.54;97240.66;5073827;28;20047;-77
2021/04/23 03:46:19;;;;;;;5.25;2.00;;;;;;;2.20;53.66;97243.38;5073763;28;20033;-77
2021/04/23 03:48:45;;;;;;;5.68;2.22;;;;;;;2.17;53.70;97247.09;5074016;28;20400;-77
2021/04/23 03:51:13;;;;;;;3.47;2.60;;;;;;;2.13;53.93;97245.75;5074004;28;20047;-77
2021/04/23 03:53:40;;;;;;;6.72;2.55;;;;;;;2.11;53.94;97250.25;5073713;28;20045;-77
2021/04/23 03:56:07;;;;;;;4.60;1.80;;;;;;;2.08;53.98;97247.13;5072326;28;20032;-77
2021/04/23 03:58:35;;;;;;;4.75;2.30;;;;;;;2.04;54.18;97238.84;5073779;28;20036;-77
2021/04/23 04:01:07;;;;;;;4.78;2.28;;;;;;;2.01;54.52;97242.53;5073607;28;20032;-77
2021/04/23 04:03:36;;;;;;;2.58;2.10;;;;;;;2.00;54.10;97240.09;5073003;28;20469;-77
2021/04/23 04:06:03;;;;;;;3.85;2.85;;;;;;;1.99;54.23;97246.22;5072293;28;20036;-77
2021/04/23 04:08:29;;;;;;;6.15;3.10;;;;;;;1.97;54.27;97238.59;5073308;28;20043;-77
2021/04/23 04:10:56;;;;;;;4.20;2.47;;;;;;;1.98;54.38;97250.59;5073940;28;20401;-77
2021/04/23 04:13:22;;;;;;;7.60;2.67;;;;;;;1.99;54.50;97243.63;5072647;28;20392;-77
2021/04/23 04:15:50;;;;;;;5.70;2.45;;;;;;;2.00;54.53;97253.84;5073550;28;20032;-77
2021/04/23 04:18:17;;;;;;;3.30;2.30;;;;;;;2.01;54.48;97254.66;5073066;28;20037;-78
2021/04/23 04:20:45;;;;;;;6.00;2.00;;;;;;;2.00;54.68;97253.84;5073509;28;20461;-77
2021/04/23 04:23:15;;;;;;;3.08;2.10;;;;;;;2.00;54.87;97260.81;5072998;28;20035;-77
2021/04/23 04:25:45;;;;;;;3.50;2.38;;;;;;;1.98;55.10;97263.53;5073641;28;20037;-77
2021/04/23 04:28:11;;;;;;;4.18;2.08;;;;;;;1.93;54.59;97265.75;5073046;28;20024;-77
2021/04/23 04:30:38;;;;;;;2.92;2.00;;;;;;;1.92;54.83;97269.25;5071968;28;20056;-77
2021/04/23 04:33:05;;;;;;;4.18;2.35;;;;;;;1.92;54.74;97268.47;5071978;28;20047;-76
2021/04/23 04:35:33;;;;;;;4.50;2.28;;;;;;;1.92;54.92;97273.63;5073022;28;20044;-77
2021/04/23 04:38:00;;;;;;;4.00;2.20;;;;;;;1.92;54.90;97283.97;5072921;28;20080;-76
2021/04/23 04:40:28;;;;;;;6.72;2.70;;;;;;;1.93;55.05;97283.00;5073004;28;20036;-77
2021/04/23 04:42:58;;;;;;;4.25;2.42;;;;;;;1.95;55.26;97292.28;5071932;28;20059;-77
2021/04/23 04:45:27;;;;;;;3.50;2.00;;;;;;;1.96;55.29;97287.91;5072553;28;20045;-77
2021/04/23 04:47:55;;;;;;;5.93;2.38;;;;;;;1.98;55.12;97293.75;5072720;28;20044;-77
2021/04/23 04:50:27;;;;;;;3.47;2.10;;;;;;;2.02;55.30;97297.69;5073246;28;20067;-76
2021/04/23 04:52:55;;;;;;;5.82;2.50;;;;;;;2.19;55.52;97298.72;5072429;28;20051;-77
2021/04/23 04:55:26;;;;;;;2.95;2.05;;;;;;;2.59;55.76;97295.75;5072844;28;20041;-76
2021/04/23 04:57:52;;;;;;;4.25;1.83;;;;;;;3.10;55.65;97288.25;5073082;28;20043;-76
2021/04/23 05:00:19;;;;;;;5.50;2.47;;;;;;;3.63;55.49;97295.13;5073014;28;20142;-76
2021/04/23 05:02:46;;;;;;;4.90;2.38;;;;;;;4.18;55.15;97296.53;5073141;28;20472;-76
2021/04/23 05:05:13;;;;;;;5.25;2.40;;;;;;;4.70;54.32;97287.72;5072832;28;20051;-76
2021/04/23 05:07:39;;;;;;;5.90;2.15;;;;;;;5.15;54.10;97278.69;5072818;28;20517;-77
2021/04/23 05:10:07;;;;;;;3.20;2.63;;;;;;;5.59;53.46;97275.72;5072471;28;20041;-76
2021/04/23 05:12:35;;;;;;;3.92;2.25;;;;;;;6.02;52.72;97275.47;5072058;28;20037;-76
2021/04/23 05:15:02;;;;;;;6.30;2.30;;;;;;;6.44;52.23;97277.72;5072689;28;20048;-77
2021/04/23 05:17:28;;;;;;;3.45;2.13;;;;;;;6.84;51.61;97269.81;5072749;28;20049;-76
2021/04/23 05:19:55;;;;;;;4.18;2.42;;;;;;;7.21;50.92;97260.44;5073042;28;20047;-76
2021/04/23 05:22:21;;;;;;;3.70;2.70;;;;;;;7.58;50.42;97262.22;5072639;28;20381;-77
2021/04/23 05:24:48;;;;;;;5.00;2.40;;;;;;;7.94;49.81;97251.06;5072318;28;20048;-77
2021/04/23 05:27:14;;;;;;;5.60;2.58;;;;;;;8.23;48.89;97247.59;5076682;28;20044;-77
2021/04/23 05:29:40;;;;;;;4.18;2.60;;;;;;;8.53;48.18;97242.34;5075075;28;20488;-77
2021/04/23 05:32:07;;;;;;;4.30;2.70;;;;;;;8.82;47.24;97249.25;5077262;28;20053;-76
2021/04/23 05:34:33;;;;;;;5.35;2.60;;;;;;;9.14;46.95;97232.22;5075038;28;20056;-77
2021/04/23 05:36:59;;;;;;;3.67;2.60;;;;;;;9.48;45.91;97251.59;5076379;28;20055;-77
2021/04/23 05:39:26;;;;;;;4.88;2.40;;;;;;;9.66;45.39;97247.69;5076281;28;20044;-77
2021/04/23 05:41:53;;;;;;;3.25;2.50;;;;;;;9.81;44.76;97251.03;5067738;28;20469;-78
2021/04/23 05:44:19;;;;;;;4.00;2.75;;;;;;;10.07;44.30;97252.16;5076097;28;20043;-77
2021/04/23 05:46:45;;;;;;;5.47;3.30;;;;;;;10.26;43.58;97255.88;5075471;28;20126;-77
2021/04/23 05:49:12;;;;;;;6.20;3.45;;;;;;;10.55;43.32;97254.78;5075967;28;20041;-77
2021/04/23 05:51:38;;;;;;;5.35;2.88;;;;;;;10.74;42.44;97258.47;5076404;28;20036;-76
2021/04/23 05:54:04;;;;;;;3.67;3.20;;;;;;;10.79;42.11;97263.13;5076000;28;20115;-77
2021/04/23 05:56:31;;;;;;;5.60;3.47;;;;;;;11.01;41.62;97264.56;5075931;28;20400;-77
2021/04/23 05:58:57;;;;;;;4.38;2.80;;;;;;;11.24;41.06;97269.44;5076156;28;20468;-77
2021/04/23 06:01:23;;;;;;;4.03;2.85;;;;;;;11.54;40.67;97263.78;5075237;28;20045;-77
2021/04/23 06:03:49;;;;;;;4.22;3.10;;;;;;;11.79;39.91;97262.13;5075944;28;20048;-77
2021/04/23 06:06:16;;;;;;;6.05;3.80;;;;;;;12.08;39.51;97265.31;5075764;28;20393;-77
2021/04/23 06:08:43;;;;;;;6.13;3.53;;;;;;;12.26;38.84;97274.34;5076127;28;20040;-77
2021/04/23 06:11:17;;;;;;;6.80;3.42;;;;;;;12.35;38.32;97273.94;5075418;28;20024;-77
2021/04/23 06:13:45;;;;;;;5.85;2.90;;;;;;;12.48;37.94;97282.78;5075774;28;20461;-78
2021/04/23 06:16:12;;;;;;;5.78;3.00;;;;;;;12.38;37.50;97284.03;5065377;28;20055;-77
2021/04/23 06:18:39;;;;;;;7.38;2.80;;;;;;;12.46;37.38;97290.09;5075730;28;20040;-77
2021/04/23 06:21:06;;;;;;;3.58;3.03;;;;;;;12.66;37.13;97287.34;5075563;28;20044;-77
2021/04/23 06:23:33;;;;;;;7.00;3.17;;;;;;;12.80;36.68;97287.06;5075402;28;20045;-77
2021/04/23 06:25:59;;;;;;;4.63;3.10;;;;;;;12.79;36.35;97284.66;5074781;28;20052;-77
2021/04/23 06:28:26;;;;;;;7.82;3.50;;;;;;;12.93;36.34;97288.81;5075962;28;20055;-77
2021/04/23 06:30:53;;;;;;;6.82;2.72;;;;;;;13.16;36.00;97290.88;5073715;28;20072;-76
2021/04/23 06:33:22;;;;;;;3.78;3.10;;;;;;;13.50;35.90;97286.22;5075351;28;20407;-77
2021/04/23 06:35:49;;;;;;;5.30;2.80;;;;;;;13.79;35.48;97287.38;5075382;28;20416;-77
2021/04/23 06:38:16;;;;;;;3.45;2.92;;;;;;;14.12;35.13;97288.06;5074115;28;20067;-77
2021/04/23 06:40:43;;;;;;;4.43;2.95;;;;;;;14.32;34.77;97283.38;5075200;28;20476;-77
2021/04/23 06:43:09;;;;;;;4.15;2.80;;;;;;;14.51;34.20;97284.19;5074511;28;20040;-77
2021/04/23 06:45:36;;;;;;;2.90;2.58;;;;;;;14.70;34.08;97287.63;5075363;28;20488;-77
2021/04/23 06:48:03;;;;;;;3.58;3.17;;;;;;;14.80;33.58;97298.47;5075140;28;20025;-77
2021/04/23 06:50:29;;;;;;;5.50;2.97;;;;;;;14.81;33.15;97292.13;5074989;28;20045;-77
2021/04/23 06:52:57;;;;;;;3.92;2.90;;;;;;;14.80;32.98;97295.81;5075038;28;20041;-77
2021/04/23 06:55:24;;;;;;;4.53;2.67;;;;;;;14.53;32.76;97292.69;5075141;28;20041;-77
2021/04/23 06:57:51;;;;;;;3.95;3.08;;;;;;;14.52;33.04;97298.16;5074069;28;20468;-77
2021/04/23 07:00:21;;;;;;;5.47;3.15;;;;;;;14.71;32.43;97301.63;5075318;28;20040;-78
2021/04/23 07:02:48;;;;;;;4.25;3.20;;;;;;;14.84;32.61;97300.63;5062490;28;20036;-77
2021/04/23 07:05:16;;;;;;;4.70;2.65;;;;;;;14.98;32.49;97299.44;5074440;28;20397;-78
2021/04/23 07:07:42;;;;;;;9.35;3.22;;;;;;;15.10;32.27;97291.53;5057023;28;20465;-76
2021/04/23 07:10:11;;;;;;;4.47;3.13;;;;;;;15.19;31.84;97298.13;5073401;28;20032;-77
2021/04/23 07:12:38;;;;;;;5.13;2.90;;;;;;;15.19;32.09;97290.19;5074745;28;20473;-77
2021/04/23 07:15:07;;;;;;;4.63;3.00;;;;;;;15.31;32.13;97300.78;5074522;28;20036;-77
2021/04/23 07:17:34;;;;;;;5.82;3.20;;;;;;;15.30;31.98;97307.91;5074720;28;20464;-77
2021/04/23 07:20:00;;;;;;;6.18;2.80;;;;;;;15.26;31.94;97301.44;5074609;28;20445;-77
2021/04/23 07:22:26;;;;;;;5.45;3.20;;;;;;;15.41;31.90;97308.94;5074441;28;20032;-77
2021/04/23 07:24:53;;;;;;;3.75;3.30;;;;;;;15.62;31.98;97300.50;5074629;28;20048;-78
2021/04/23 07:27:19;;;;;;;4.55;3.15;;;;;;;15.75;31.65;97312.72;5073570;28;20028;-77
2021/04/23 07:29:46;;;;;;;5.80;3.20;;;;;;;15.88;31.70;97305.59;5074356;28;20044;-77
2021/04/23 07:32:14;;;;;;;4.70;3.13;;;;;;;15.85;31.43;97306.84;5074420;28;20150;-77
2021/04/23 07:34:41;;;;;;;5.05;2.97;;;;;;;16.04;31.43;97312.81;5073949;28;20048;-77
2021/04/23 07:37:07;;;;;;;5.05;2.88;;;;;;;15.90;31.43;97316.75;5073899;28;20508;-77
2021/04/23 07:39:34;;;;;;;4.75;3.03;;;;;;;15.71;31.19;97313.38;5074276;28;20032;-77
2021/04/23 07:42:01;;;;;;;5.07;3.08;;;;;;;15.58;31.63;97322.31;5073329;28;20148;-77
2021/04/23 07:44:28;;;;;;;5.40;3.00;;;;;;;15.75;31.59;97318.00;5072732;28;20032;-77
2021/04/23 07:46:55;;;;;;;3.67;2.70;;;;;;;15.67;31.42;97326.25;5073388;28;20408;-77
2021/04/23 07:49:21;;;;;;;4.05;3.13;;;;;;;15.58;31.53;97320.50;5072188;28;20503;-77
2021/04/23 07:51:47;;;;;;;4.47;3.10;;;;;;;15.56;31.51;97325.19;5072899;28;20036;-77
2021/04/23 07:54:15;;;;;;;4.65;3.05;;;;;;;15.41;31.56;97312.41;5073941;28;20481;-77
2021/04/23 07:56:41;;;;;;;5.57;3.58;;;;;;;15.53;31.83;97311.63;5073910;28;20503;-77
2021/04/23 07:59:07;;;;;;;3.38;2.80;;;;;;;15.65;31.65;97317.72;5074050;28;20037;-77
2021/04/23 08:01:35;;;;;;;4.53;2.80;;;;;;;15.79;31.55;97313.03;5073661;28;20040;-77
2021/04/23 08:04:01;;;;;;;5.95;3.30;;;;;;;15.97;31.56;97312.13;5072318;28;20484;-77
2021/04/23 08:06:28;;;;;;;3.80;2.83;;;;;;;16.19;31.49;97312.31;5073595;28;20033;-76
2021/04/23 08:08:54;;;;;;;6.10;2.65;;;;;;;16.26;31.14;97310.38;5073441;28;20037;-76
2021/04/23 08:11:20;;;;;;;7.00;2.97;;;;;;;16.24;31.07;97309.81;5073739;28;20051;-76
2021/04/23 08:13:47;;;;;;;4.63;2.72;;;;;;;16.25;31.08;97314.06;5073499;28;20044;-77
2021/04/23 08:16:13;;;;;;;4.95;2.97;;;;;;;16.28;31.00;97310.16;5073270;28;20036;-76
2021/04/23 08:18:40;;;;;;;5.78;3.10;;;;;;;16.15;30.87;97316.50;5073569;28;20392;-76
2021/04/23 08:21:08;;;;;;;6.35;2.90;;;;;;;16.23;31.12;97311.66;5073467;28;20041;-76
2021/04/23 08:23:35;;;;;;;3.88;2.58;;;;;;;16.60;31.01;97321.13;5073589;28;20051;-76
2021/04/23 08:26:03;;;;;;;6.97;2.85;;;;;;;16.58;30.33;97325.84;5073438;28;20407;-77
2021/04/23 08:28:31;;;;;;;5.30;2.50;;;;;;;16.62;30.50;97316.41;5073380;28;20409;-76
2021/04/23 08:30:58;;;;;;;5.18;3.13;;;;;;;16.86;30.33;97306.53;5072933;28;20055;-77
2021/04/23 08:33:25;;;;;;;6.70;2.65;;;;;;;17.10;29.92;97311.75;5073416;28;20044;-77
2021/04/23 08:35:52;;;;;;;5.18;2.63;;;;;;;16.83;29.59;97313.13;5073299;28;20048;-76
2021/04/23 08:38:18;;;;;;;4.90;2.58;;;;;;;16.97;29.56;97315.50;5073323;28;20029;-76
2021/04/23 08:40:44;;;;;;;3.60;2.20;;;;;;;17.10;29.17;97319.72;5073362;28;20047;-76
2021/04/23 08:43:11;;;;;;;4.15;2.88;;;;;;;16.65;28.96;97315.91;5072836;28;20049;-77
2021/04/23 08:45:37;;;;;;;4.53;2.25;;;;;;;16.60;29.30;97315.81;5073462;28;20487;-76
2021/04/23 08:48:06;;;;;;;4.93;2.28;;;;;;;16.78;28.82;97307.72;5073194;28;20047;-77
2021/04/23 08:50:32;;;;;;;4.20;2.25;;;;;;;16.99;28.61;97318.72;5073389;28;20037;-76
2021/04/23 08:52:59;;;;;;;4.45;2.38;;;;;;;17.08;28.55;97312.00;5073249;28;20469;-76
2021/04/23 08:55:26;;;;;;;3.55;2.40;;;;;;;17.02;28.31;97316.38;5073240;28;20043;-76
2021/04/23 08:57:53;;;;;;;4.47;2.20;;;;;;;17.05;28.33;97307.19;5072791;28;20029;-76
2021/04/23 09:00:20;;;;;;;5.43;3.10;;;;;;;16.78;27.96;97310.34;5074880;28;20033;-76
2021/04/23 09:02:46;;;;;;;4.50;2.40;;;;;;;16.81;28.13;97307.25;5076133;28;20051;-76
2021/04/23 09:05:14;;;;;;;4.18;2.70;;;;;;;16.94;27.94;97314.13;5076982;28;20031;-76
2021/04/23 09:07:41;;;;;;;4.10;2.75;;;;;;;16.98;27.85;97309.94;5077017;28;20059;-76
2021/04/23 09:10:10;;;;;;;4.57;2.33;;;;;;;16.99;27.42;97302.81;5075835;28;21281;-76
2021/04/23 09:12:38;;;;;;;2.80;2.20;;;;;;;16.98;27.56;97312.59;5077537;28;20412;-76
2021/04/23 09:15:29;;;;;;;5.30;2.22;;;;;;;17.00;27.26;97310.53;5076903;28;20037;-76
2021/04/23 09:18:16;;;;;;;3.05;2.22;;;;;;;16.75;27.11;97310.03;5067150;28;20408;-76
2021/04/23 09:20:46;;;;;;;5.78;2.90;;;;;;;16.64;27.51;97309.03;5067428;28;20044;-77
2021/04/23 09:23:20;;;;;;;5.28;2.50;;;;;;;16.38;27.39;97313.00;5077295;28;20575;-76
2021/04/23 09:25:51;;;;;;;5.32;2.85;;;;;;;16.60;27.94;97307.88;5074984;28;20389;-76
2021/04/23 09:28:36;;;;;;;5.78;2.65;;;;;;;16.90;27.40;97310.31;5076186;28;20412;-76
2021/04/23 09:31:38;;;;;;;5.25;2.45;;;;;;;16.90;27.15;97302.38;5076606;28;20059;-77
2021/04/23 09:34:07;;;;;;;5.95;2.28;;;;;;;16.78;26.87;97298.97;5034524;28;20049;-76
2021/04/23 09:36:48;;;;;;;5.25;2.72;;;;;;;16.70;26.36;97304.63;5068468;28;20060;-76
2021/04/23 09:39:20;;;;;;;4.30;2.25;;;;;;;16.56;26.51;97304.88;5076162;28;20047;-76
2021/04/23 09:42:06;;;;;;;6.43;2.33;;;;;;;16.70;27.10;97308.09;5076713;28;20032;-76
2021/04/23 09:44:34;;;;;;;3.13;2.03;;;;;;;16.96;27.15;97300.63;5076472;28;20362;-76
2021/04/23 09:47:13;;;;;;;5.05;2.70;;;;;;;17.13;26.76;97301.47;5076674;28;20040;-76
2021/04/23 09:49:50;;;;;;;4.57;2.72;;;;;;;17.33;26.70;97297.56;5065765;28;20044;-76
2021/04/23 09:52:17;;;;;;;5.97;2.65;;;;;;;17.30;26.70;97290.88;5076447;28;20040;-76
2021/04/23 09:54:51;;;;;;;3.67;2.40;;;;;;;16.95;26.69;97299.03;5075638;28;20044;-76
2021/04/23 09:57:38;;;;;;;6.70;2.88;;;;;;;16.76;27.05;97298.41;5076214;28;20033;-76
2021/04/23 10:00:07;;;;;;;4.28;2.10;;;;;;;16.65;27.02;97289.44;5075964;28;20048;-77
2021/04/23 10:02:35;;;;;;;5.90;2.80;;;;;;;16.68;27.24;97286.31;5074851;28;20060;-76
2021/04/23 10:05:03;;;;;;;4.38;2.50;;;;;;;16.75;27.06;97296.78;5076172;28;20044;-76
2021/04/23 10:07:34;;;;;;;3.72;2.20;;;;;;;16.82;27.14;97292.19;5075747;28;20035;-76
2021/04/23 10:10:09;;;;;;;4.18;2.30;;;;;;;17.14;27.13;97297.00;5076034;28;20036;-76
2021/04/23 10:12:53;;;;;;;6.57;2.92;;;;;;;17.32;25.72;97288.00;5074800;28;20040;-76
2021/04/23 10:15:23;;;;;;;4.22;2.70;;;;;;;17.31;26.50;97291.72;5076331;28;20043;-76
2021/04/23 10:17:55;;;;;;;3.58;2.20;;;;;;;17.52;26.36;97293.63;5075642;28;20036;-76
2021/04/23 10:20:30;;;;;;;5.60;2.60;;;;;;;17.77;26.08;97285.25;5075851;28;20369;-76
2021/04/23 10:22:58;;;;;;;6.47;2.55;;;;;;;17.78;25.94;97289.50;5075524;28;20393;-76
2021/04/23 10:25:25;;;;;;;4.00;2.22;;;;;;;17.88;25.98;97280.94;5074088;28;20032;-76
2021/04/23 10:27:54;;;;;;;5.95;2.70;;;;;;;18.05;25.84;97272.94;5075503;28;20056;-76
2021/04/23 10:30:23;;;;;;;4.57;2.45;;;;;;;18.16;25.34;97279.97;5075190;28;20064;-76
2021/04/23 10:32:52;;;;;;;3.67;2.47;;;;;;;18.11;25.22;97282.56;5075997;28;20040;-76
2021/04/23 10:35:20;;;;;;;4.80;2.63;;;;;;;17.97;25.42;97279.44;5075318;28;20033;-77
2021/04/23 10:37:47;;;;;;;5.03;2.95;;;;;;;17.70;25.12;97283.81;5074108;28;20475;-76
2021/04/23 10:40:19;;;;;;;4.63;2.90;;;;;;;17.45;25.02;97283.19;5075121;28;20059;-76
2021/04/23 10:42:56;;;;;;;3.80;2.55;;;;;;;17.36;25.67;97287.28;5075202;28;20036;-76
2021/04/23 10:45:38;;;;;;;3.10;2.63;;;;;;;17.42;26.17;97290.81;5074923;28;20049;-76
2021/04/23 10:48:24;;;;;;;5.20;2.78;;;;;;;17.68;26.11;97285.91;5065103;28;20424;-76
2021/04/23 10:51:00;;;;;;;5.75;2.90;;;;;;;17.92;25.50;97281.25;5075172;28;20037;-76
2021/04/23 10:53:26;;;;;;;3.45;2.50;;;;;;;18.11;25.66;97281.78;5075362;28;20036;-76
2021/04/23 10:56:06;;;;;;;4.43;2.65;;;;;;;18.42;24.40;97272.34;5075021;28;20048;-76
2021/04/23 10:58:32;;;;;;;3.63;2.60;;;;;;;18.66;25.38;97280.84;5075067;28;20044;-77
2021/04/23 11:01:00;;;;;;;4.22;2.80;;;;;;;18.71;25.18;97272.13;5074857;28;20477;-76
2021/04/23 11:03:35;;;;;;;4.25;2.53;;;;;;;18.56;25.16;97265.59;5074832;28;20043;-76
2021/04/23 11:06:06;;;;;;;3.13;2.10;;;;;;;18.54;25.18;97273.03;5074820;28;20024;-76
2021/04/23 11:08:34;;;;;;;4.35;2.47;;;;;;;18.65;25.17;97269.41;5074417;28;20043;-76
2021/04/23 11:11:11;;;;;;;5.38;2.42;;;;;;;18.91;25.20;97263.59;5074495;28;20029;-76
2021/04/23 11:13:43;;;;;;;3.45;2.50;;;;;;;18.61;23.68;97267.50;5074254;28;20421;-76
2021/04/23 11:16:25;;;;;;;4.18;2.78;;;;;;;18.56;25.03;97281.53;5075151;28;20032;-76
2021/04/23 11:18:54;;;;;;;5.45;4.00;;;;;;;18.62;24.78;97279.72;5074528;28;20037;-76
2021/04/23 11:21:30;;;;;;;4.35;2.65;;;;;;;18.62;23.77;97275.22;5073558;28;20041;-76
2021/04/23 11:24:19;;;;;;;3.17;2.28;;;;;;;18.69;23.47;97272.38;5059625;28;20043;-76
2021/04/23 11:26:52;;;;;;;6.43;2.85;;;;;;;18.58;24.97;97273.31;5074807;28;20040;-76
2021/04/23 11:29:23;;;;;;;4.45;2.63;;;;;;;18.70;24.58;97270.53;5074289;28;20032;-77
2021/04/23 11:32:18;;;;;;;5.07;3.10;;;;;;;18.97;24.66;97266.03;5074174;28;20409;-76
2021/04/23 11:34:51;;;;;;;4.13;2.83;;;;;;;19.16;24.29;97269.13;5074018;28;20412;-76
2021/04/23 11:37:18;;;;;;;5.22;3.47;;;;;;;19.35;24.37;97264.25;5074545;28;20416;-76
2021/04/23 11:39:47;;;;;;;9.02;3.38;;;;;;;19.56;24.05;97259.88;5074318;28;20047;-76
2021/04/23 11:42:21;;;;;;;4.25;3.05;;;;;;;19.80;24.34;97257.69;5073984;28;20032;-76
2021/04/23 11:45:11;;;;;;;4.07;2.90;;;;;;;20.10;24.47;97256.25;5073558;28;20491;-76